sensor_id;sensor_type;location;lat;lon;timestamp;P1;durP1;ratioP1;P2;durP2;ratioP2
37877;SDS011;23715;53.652;8.516;2023-08-20T00:02:22;61.42;;;58.42;;
37877;SDS011;23715;53.652;8.516;2023-08-20T00:07:24;64.20;;;60.90;;
37877;SDS011;23715;53.652;8.516;2023-08-20T00:12:25;62.98;;;59.98;;
37877;SDS011;23715;53.652;8.516;2023-08-20T00:17:25;56.92;;;54.10;;
37877;SDS011;23715;53.652;8.516;2023-08-20T00:22:26;56.42;;;53.75;;
37877;SDS011;23715;53.652;8.516;2023-08-20T00:27:27;56.02;;;53.38;;
37877;SDS011;23715;53.652;8.516;2023-08-20T00:37:28;47.98;;;45.67;;
37877;SDS011;23715;53.652;8.516;2023-08-20T00:42:29;47.00;;;44.70;;
37877;SDS011;23715;53.652;8.516;2023-08-20T00:47:29;44.40;;;42.33;;
37877;SDS011;23715;53.652;8.516;2023-08-20T00:52:31;39.70;;;37.90;;
37877;SDS011;23715;53.652;8.516;2023-08-20T00:57:32;39.03;;;37.23;;
37877;SDS011;23715;53.652;8.516;2023-08-20T01:02:35;39.05;;;37.25;;
37877;SDS011;23715;53.652;8.516;2023-08-20T01:13:08;32.65;;;31.15;;
37877;SDS011;23715;53.652;8.516;2023-08-20T01:18:09;32.60;;;31.00;;
37877;SDS011;23715;53.652;8.516;2023-08-20T01:33:27;38.63;;;36.73;;
37877;SDS011;23715;53.652;8.516;2023-08-20T01:38:29;42.07;;;40.07;;
37877;SDS011;23715;53.652;8.516;2023-08-20T01:43:31;40.70;;;38.80;;
37877;SDS011;23715;53.652;8.516;2023-08-20T01:48:31;52.95;;;50.45;;
37877;SDS011;23715;53.652;8.516;2023-08-20T01:53:32;60.55;;;57.58;;
37877;SDS011;23715;53.652;8.516;2023-08-20T01:58:32;57.83;;;55.12;;
37877;SDS011;23715;53.652;8.516;2023-08-20T02:03:34;57.13;;;54.23;;
37877;SDS011;23715;53.652;8.516;2023-08-20T02:08:37;52.88;;;50.38;;
37877;SDS011;23715;53.652;8.516;2023-08-20T02:18:37;45.58;;;43.48;;
37877;SDS011;23715;53.652;8.516;2023-08-20T02:23:37;49.20;;;46.87;;
37877;SDS011;23715;53.652;8.516;2023-08-20T02:28:38;44.27;;;42.20;;
37877;SDS011;23715;53.652;8.516;2023-08-20T02:33:38;43.58;;;41.48;;
37877;SDS011;23715;53.652;8.516;2023-08-20T02:38:39;44.13;;;42.03;;
37877;SDS011;23715;53.652;8.516;2023-08-20T02:43:39;50.52;;;48.13;;
37877;SDS011;23715;53.652;8.516;2023-08-20T02:48:40;44.83;;;42.73;;
37877;SDS011;23715;53.652;8.516;2023-08-20T02:53:40;48.95;;;46.65;;
37877;SDS011;23715;53.652;8.516;2023-08-20T02:58:40;50.25;;;47.75;;
37877;SDS011;23715;53.652;8.516;2023-08-20T03:03:40;47.45;;;45.23;;
37877;SDS011;23715;53.652;8.516;2023-08-20T03:08:41;43.45;;;41.40;;
37877;SDS011;23715;53.652;8.516;2023-08-20T03:13:42;44.15;;;42.13;;
37877;SDS011;23715;53.652;8.516;2023-08-20T03:18:42;45.85;;;43.73;;
37877;SDS011;23715;53.652;8.516;2023-08-20T03:23:42;44.17;;;42.07;;
37877;SDS011;23715;53.652;8.516;2023-08-20T03:28:42;41.20;;;39.20;;
37877;SDS011;23715;53.652;8.516;2023-08-20T03:33:43;41.45;;;39.53;;
37877;SDS011;23715;53.652;8.516;2023-08-20T03:38:44;42.70;;;40.70;;
37877;SDS011;23715;53.652;8.516;2023-08-20T03:43:44;40.45;;;38.58;;
37877;SDS011;23715;53.652;8.516;2023-08-20T03:48:45;39.18;;;37.38;;
37877;SDS011;23715;53.652;8.516;2023-08-20T03:53:45;39.65;;;37.83;;
37877;SDS011;23715;53.652;8.516;2023-08-20T03:58:45;41.88;;;39.95;;
37877;SDS011;23715;53.652;8.516;2023-08-20T04:03:46;42.27;;;40.28;;
37877;SDS011;23715;53.652;8.516;2023-08-20T04:08:46;39.70;;;37.90;;
37877;SDS011;23715;53.652;8.516;2023-08-20T04:13:47;40.98;;;39.08;;
37877;SDS011;23715;53.652;8.516;2023-08-20T04:18:47;44.23;;;42.13;;
37877;SDS011;23715;53.652;8.516;2023-08-20T04:23:48;42.85;;;40.85;;
37877;SDS011;23715;53.652;8.516;2023-08-20T04:28:48;43.00;;;41.00;;
37877;SDS011;23715;53.652;8.516;2023-08-20T04:33:49;44.40;;;42.27;;
37877;SDS011;23715;53.652;8.516;2023-08-20T04:38:51;42.55;;;40.50;;
37877;SDS011;23715;53.652;8.516;2023-08-20T04:43:53;46.45;;;44.33;;
37877;SDS011;23715;53.652;8.516;2023-08-20T04:48:54;44.40;;;42.30;;
37877;SDS011;23715;53.652;8.516;2023-08-20T04:53:54;47.10;;;44.90;;
37877;SDS011;23715;53.652;8.516;2023-08-20T04:58:55;51.98;;;49.38;;
37877;SDS011;23715;53.652;8.516;2023-08-20T05:04:03;60.17;;;57.35;;
37877;SDS011;23715;53.652;8.516;2023-08-20T05:09:04;66.53;;;63.17;;
37877;SDS011;23715;53.652;8.516;2023-08-20T05:14:08;70.92;;;67.37;;
37877;SDS011;23715;53.652;8.516;2023-08-20T05:19:09;70.00;;;66.53;;
37877;SDS011;23715;53.652;8.516;2023-08-20T05:24:10;75.62;;;71.92;;
37877;SDS011;23715;53.652;8.516;2023-08-20T05:29:11;75.92;;;72.12;;
37877;SDS011;23715;53.652;8.516;2023-08-20T05:34:11;76.40;;;72.60;;
37877;SDS011;23715;53.652;8.516;2023-08-20T05:39:11;80.50;;;76.47;;
37877;SDS011;23715;53.652;8.516;2023-08-20T05:44:12;86.87;;;82.45;;
37877;SDS011;23715;53.652;8.516;2023-08-20T05:49:13;96.63;;;91.63;;
37877;SDS011;23715;53.652;8.516;2023-08-20T05:54:22;89.13;;;84.42;;
37877;SDS011;23715;53.652;8.516;2023-08-20T05:59:20;91.63;;;86.63;;
37877;SDS011;23715;53.652;8.516;2023-08-20T06:04:20;89.80;;;83.87;;
37877;SDS011;23715;53.652;8.516;2023-08-20T06:09:21;88.58;;;83.78;;
37877;SDS011;23715;53.652;8.516;2023-08-20T06:14:21;85.92;;;81.32;;
37877;SDS011;23715;53.652;8.516;2023-08-20T06:19:21;86.40;;;81.63;;
37877;SDS011;23715;53.652;8.516;2023-08-20T06:24:22;84.20;;;79.67;;
37877;SDS011;23715;53.652;8.516;2023-08-20T06:29:23;87.50;;;82.55;;
37877;SDS011;23715;53.652;8.516;2023-08-20T06:34:23;83.47;;;78.75;;
37877;SDS011;23715;53.652;8.516;2023-08-20T06:39:23;83.77;;;78.73;;
37877;SDS011;23715;53.652;8.516;2023-08-20T06:44:23;82.78;;;78.33;;
37877;SDS011;23715;53.652;8.516;2023-08-20T06:54:23;84.40;;;79.87;;
37877;SDS011;23715;53.652;8.516;2023-08-20T06:59:23;81.67;;;77.35;;
37877;SDS011;23715;53.652;8.516;2023-08-20T07:04:24;83.20;;;78.67;;
37877;SDS011;23715;53.652;8.516;2023-08-20T07:09:24;81.78;;;77.30;;
37877;SDS011;23715;53.652;8.516;2023-08-20T07:19:24;86.47;;;81.70;;
37877;SDS011;23715;53.652;8.516;2023-08-20T07:24:24;85.00;;;80.40;;
37877;SDS011;23715;53.652;8.516;2023-08-20T07:29:26;85.05;;;80.35;;
37877;SDS011;23715;53.652;8.516;2023-08-20T07:34:29;85.97;;;81.17;;
37877;SDS011;23715;53.652;8.516;2023-08-20T07:39:33;83.37;;;78.62;;
37877;SDS011;23715;53.652;8.516;2023-08-20T07:44:33;81.03;;;76.43;;
37877;SDS011;23715;53.652;8.516;2023-08-20T07:54:33;79.50;;;75.10;;
37877;SDS011;23715;53.652;8.516;2023-08-20T07:59:33;83.97;;;79.40;;
37877;SDS011;23715;53.652;8.516;2023-08-20T08:04:34;82.72;;;78.28;;
37877;SDS011;23715;53.652;8.516;2023-08-20T08:09:35;80.45;;;76.15;;
37877;SDS011;23715;53.652;8.516;2023-08-20T08:14:35;81.57;;;77.07;;
37877;SDS011;23715;53.652;8.516;2023-08-20T08:24:35;77.40;;;73.40;;
37877;SDS011;23715;53.652;8.516;2023-08-20T08:29:35;77.85;;;73.83;;
37877;SDS011;23715;53.652;8.516;2023-08-20T08:34:35;77.45;;;73.45;;
37877;SDS011;23715;53.652;8.516;2023-08-20T08:39:36;80.53;;;76.35;;
37877;SDS011;23715;53.652;8.516;2023-08-20T08:44:36;75.03;;;71.23;;
37877;SDS011;23715;53.652;8.516;2023-08-20T08:49:37;72.92;;;69.12;;
37877;SDS011;23715;53.652;8.516;2023-08-20T08:54:37;69.27;;;65.25;;
37877;SDS011;23715;53.652;8.516;2023-08-20T08:59:39;70.08;;;66.15;;
37877;SDS011;23715;53.652;8.516;2023-08-20T09:04:41;65.42;;;62.17;;
37877;SDS011;23715;53.652;8.516;2023-08-20T09:09:42;67.40;;;62.40;;
37877;SDS011;23715;53.652;8.516;2023-08-20T09:14:48;62.50;;;59.10;;
37877;SDS011;23715;53.652;8.516;2023-08-20T09:19:51;69.25;;;62.43;;
37877;SDS011;23715;53.652;8.516;2023-08-20T09:24:55;58.73;;;55.73;;
37877;SDS011;23715;53.652;8.516;2023-08-20T09:29:59;56.02;;;53.02;;
37877;SDS011;23715;53.652;8.516;2023-08-20T09:39:58;60.75;;;57.50;;
37877;SDS011;23715;53.652;8.516;2023-08-20T09:50:00;49.13;;;46.63;;
37877;SDS011;23715;53.652;8.516;2023-08-20T09:55:08;49.08;;;45.78;;
37877;SDS011;23715;53.652;8.516;2023-08-20T10:00:10;48.65;;;46.25;;
37877;SDS011;23715;53.652;8.516;2023-08-20T10:05:12;46.08;;;43.78;;
37877;SDS011;23715;53.652;8.516;2023-08-20T10:10:14;43.55;;;41.37;;
37877;SDS011;23715;53.652;8.516;2023-08-20T10:52:50;34.77;;;32.97;;
37877;SDS011;23715;53.652;8.516;2023-08-20T10:57:55;43.92;;;41.73;;
37877;SDS011;23715;53.652;8.516;2023-08-20T11:03:01;34.83;;;33.13;;
37877;SDS011;23715;53.652;8.516;2023-08-20T11:08:02;39.20;;;37.30;;
37877;SDS011;23715;53.652;8.516;2023-08-20T11:13:05;44.05;;;41.90;;
37877;SDS011;23715;53.652;8.516;2023-08-20T11:18:06;41.40;;;39.40;;
37877;SDS011;23715;53.652;8.516;2023-08-20T11:23:07;43.80;;;41.65;;
37877;SDS011;23715;53.652;8.516;2023-08-20T11:28:09;40.50;;;38.55;;
37877;SDS011;23715;53.652;8.516;2023-08-20T11:33:12;45.45;;;43.25;;
37877;SDS011;23715;53.652;8.516;2023-08-20T11:38:13;36.68;;;34.92;;
37877;SDS011;23715;53.652;8.516;2023-08-20T11:43:14;32.88;;;31.30;;
37877;SDS011;23715;53.652;8.516;2023-08-20T11:48:16;37.55;;;35.58;;
37877;SDS011;23715;53.652;8.516;2023-08-20T11:53:20;33.67;;;32.08;;
37877;SDS011;23715;53.652;8.516;2023-08-20T11:58:22;36.08;;;34.38;;
37877;SDS011;23715;53.652;8.516;2023-08-20T12:03:28;36.73;;;34.92;;
37877;SDS011;23715;53.652;8.516;2023-08-20T12:08:29;33.47;;;31.67;;
37877;SDS011;23715;53.652;8.516;2023-08-20T12:13:32;34.45;;;32.23;;
37877;SDS011;23715;53.652;8.516;2023-08-20T12:18:34;28.97;;;27.57;;
37877;SDS011;23715;53.652;8.516;2023-08-20T12:23:35;32.88;;;31.20;;
37877;SDS011;23715;53.652;8.516;2023-08-20T12:28:35;22.50;;;21.48;;
37877;SDS011;23715;53.652;8.516;2023-08-20T12:33:39;23.80;;;22.70;;
37877;SDS011;23715;53.652;8.516;2023-08-20T12:38:40;25.25;;;24.05;;
37877;SDS011;23715;53.652;8.516;2023-08-20T12:43:42;23.18;;;22.07;;
37877;SDS011;23715;53.652;8.516;2023-08-20T12:48:44;19.32;;;18.42;;
37877;SDS011;23715;53.652;8.516;2023-08-20T12:58:47;12.85;;;12.25;;
37877;SDS011;23715;53.652;8.516;2023-08-20T13:08:48;15.75;;;15.05;;
37877;SDS011;23715;53.652;8.516;2023-08-20T13:13:50;15.72;;;14.25;;
37877;SDS011;23715;53.652;8.516;2023-08-20T13:18:53;15.45;;;14.75;;
37877;SDS011;23715;53.652;8.516;2023-08-20T13:23:54;18.30;;;17.45;;
37877;SDS011;23715;53.652;8.516;2023-08-20T13:33:53;24.18;;;22.98;;
37877;SDS011;23715;53.652;8.516;2023-08-20T13:38:54;25.57;;;23.70;;
37877;SDS011;23715;53.652;8.516;2023-08-20T13:43:54;26.65;;;25.35;;
37877;SDS011;23715;53.652;8.516;2023-08-20T13:48:54;27.15;;;25.65;;
37877;SDS011;23715;53.652;8.516;2023-08-20T13:53:55;31.42;;;29.72;;
37877;SDS011;23715;53.652;8.516;2023-08-20T13:58:56;24.85;;;23.65;;
37877;SDS011;23715;53.652;8.516;2023-08-20T14:03:58;26.70;;;24.90;;
37877;SDS011;23715;53.652;8.516;2023-08-20T14:08:58;22.32;;;21.23;;
37877;SDS011;23715;53.652;8.516;2023-08-20T14:13:59;19.60;;;18.70;;
37877;SDS011;23715;53.652;8.516;2023-08-20T14:18:59;19.20;;;18.30;;
37877;SDS011;23715;53.652;8.516;2023-08-20T14:24:00;17.42;;;16.45;;
37877;SDS011;23715;53.652;8.516;2023-08-20T14:34:00;15.43;;;14.60;;
37877;SDS011;23715;53.652;8.516;2023-08-20T14:39:02;15.43;;;14.73;;
37877;SDS011;23715;53.652;8.516;2023-08-20T14:44:04;15.15;;;14.45;;
37877;SDS011;23715;53.652;8.516;2023-08-20T14:49:05;16.42;;;15.63;;
37877;SDS011;23715;53.652;8.516;2023-08-20T14:54:05;15.83;;;15.13;;
37877;SDS011;23715;53.652;8.516;2023-08-20T14:59:05;16.70;;;15.58;;
37877;SDS011;23715;53.652;8.516;2023-08-20T15:04:07;17.93;;;16.90;;
37877;SDS011;23715;53.652;8.516;2023-08-20T15:09:08;19.10;;;18.20;;
37877;SDS011;23715;53.652;8.516;2023-08-20T15:14:11;18.55;;;17.73;;
37877;SDS011;23715;53.652;8.516;2023-08-20T15:19:12;19.77;;;18.52;;
37877;SDS011;23715;53.652;8.516;2023-08-20T15:24:12;17.45;;;16.65;;
37877;SDS011;23715;53.652;8.516;2023-08-20T15:34:12;15.55;;;14.78;;
37877;SDS011;23715;53.652;8.516;2023-08-20T15:39:12;16.07;;;15.28;;
37877;SDS011;23715;53.652;8.516;2023-08-20T15:44:12;16.32;;;15.53;;
37877;SDS011;23715;53.652;8.516;2023-08-20T15:49:13;16.87;;;16.07;;
37877;SDS011;23715;53.652;8.516;2023-08-20T15:54:13;15.80;;;15.10;;
37877;SDS011;23715;53.652;8.516;2023-08-20T15:59:14;16.33;;;15.63;;
37877;SDS011;23715;53.652;8.516;2023-08-20T16:04:14;17.67;;;16.85;;
37877;SDS011;23715;53.652;8.516;2023-08-20T16:09:14;16.80;;;16.00;;
37877;SDS011;23715;53.652;8.516;2023-08-20T16:14:15;15.70;;;15.00;;
37877;SDS011;23715;53.652;8.516;2023-08-20T16:19:16;18.80;;;17.85;;
37877;SDS011;23715;53.652;8.516;2023-08-20T16:24:21;17.25;;;16.45;;
37877;SDS011;23715;53.652;8.516;2023-08-20T16:29:22;16.75;;;15.95;;
37877;SDS011;23715;53.652;8.516;2023-08-20T16:34:23;16.70;;;15.90;;
37877;SDS011;23715;53.652;8.516;2023-08-20T16:39:23;16.75;;;16.00;;
37877;SDS011;23715;53.652;8.516;2023-08-20T16:44:24;16.77;;;15.97;;
37877;SDS011;23715;53.652;8.516;2023-08-20T16:49:24;16.97;;;16.17;;
37877;SDS011;23715;53.652;8.516;2023-08-20T16:54:25;16.30;;;15.05;;
37877;SDS011;23715;53.652;8.516;2023-08-20T16:59:25;17.40;;;16.50;;
37877;SDS011;23715;53.652;8.516;2023-08-20T17:09:26;19.92;;;18.92;;
37877;SDS011;23715;53.652;8.516;2023-08-20T17:14:28;21.23;;;20.00;;
37877;SDS011;23715;53.652;8.516;2023-08-20T17:19:28;20.25;;;19.35;;
37877;SDS011;23715;53.652;8.516;2023-08-20T17:24:33;19.32;;;18.42;;
37877;SDS011;23715;53.652;8.516;2023-08-20T17:29:33;19.62;;;18.73;;
37877;SDS011;23715;53.652;8.516;2023-08-20T17:34:35;19.35;;;18.35;;
37877;SDS011;23715;53.652;8.516;2023-08-20T17:39:35;19.13;;;18.13;;
37877;SDS011;23715;53.652;8.516;2023-08-20T17:44:36;19.17;;;18.27;;
37877;SDS011;23715;53.652;8.516;2023-08-20T17:49:36;17.62;;;16.73;;
37877;SDS011;23715;53.652;8.516;2023-08-20T17:54:36;16.55;;;15.80;;
37877;SDS011;23715;53.652;8.516;2023-08-20T17:59:38;16.25;;;15.50;;
37877;SDS011;23715;53.652;8.516;2023-08-20T18:04:38;17.55;;;16.75;;
37877;SDS011;23715;53.652;8.516;2023-08-20T18:09:40;16.47;;;15.67;;
37877;SDS011;23715;53.652;8.516;2023-08-20T18:14:41;17.40;;;16.55;;
37877;SDS011;23715;53.652;8.516;2023-08-20T18:19:41;17.70;;;16.90;;
37877;SDS011;23715;53.652;8.516;2023-08-20T18:24:42;16.42;;;15.72;;
37877;SDS011;23715;53.652;8.516;2023-08-20T18:29:43;15.63;;;14.93;;
37877;SDS011;23715;53.652;8.516;2023-08-20T18:34:44;15.43;;;14.68;;
37877;SDS011;23715;53.652;8.516;2023-08-20T18:39:44;15.68;;;14.90;;
37877;SDS011;23715;53.652;8.516;2023-08-20T18:44:47;15.25;;;14.55;;
37877;SDS011;23715;53.652;8.516;2023-08-20T18:49:48;17.35;;;15.95;;
37877;SDS011;23715;53.652;8.516;2023-08-20T18:54:48;15.25;;;14.55;;
37877;SDS011;23715;53.652;8.516;2023-08-20T18:59:48;17.10;;;16.10;;
37877;SDS011;23715;53.652;8.516;2023-08-20T19:04:50;14.95;;;14.25;;
37877;SDS011;23715;53.652;8.516;2023-08-20T19:09:55;15.68;;;14.98;;
37877;SDS011;23715;53.652;8.516;2023-08-20T19:14:55;18.15;;;17.35;;
37877;SDS011;23715;53.652;8.516;2023-08-20T19:19:55;20.48;;;19.42;;
37877;SDS011;23715;53.652;8.516;2023-08-20T19:24:59;20.90;;;20.00;;
37877;SDS011;23715;53.652;8.516;2023-08-20T19:30:06;21.70;;;20.60;;
37877;SDS011;23715;53.652;8.516;2023-08-20T19:35:07;21.27;;;20.27;;
37877;SDS011;23715;53.652;8.516;2023-08-20T19:40:08;32.90;;;22.30;;
37877;SDS011;23715;53.652;8.516;2023-08-20T19:45:09;22.27;;;21.23;;
37877;SDS011;23715;53.652;8.516;2023-08-20T19:50:10;20.30;;;19.15;;
37877;SDS011;23715;53.652;8.516;2023-08-20T19:55:10;18.30;;;17.50;;
37877;SDS011;23715;53.652;8.516;2023-08-20T20:00:13;18.00;;;17.10;;
37877;SDS011;23715;53.652;8.516;2023-08-20T20:05:14;16.45;;;15.55;;
37877;SDS011;23715;53.652;8.516;2023-08-20T20:10:15;17.55;;;16.75;;
37877;SDS011;23715;53.652;8.516;2023-08-20T20:15:15;18.17;;;17.27;;
37877;SDS011;23715;53.652;8.516;2023-08-20T20:20:16;17.98;;;17.17;;
37877;SDS011;23715;53.652;8.516;2023-08-20T20:30:15;20.43;;;19.53;;
37877;SDS011;23715;53.652;8.516;2023-08-20T20:35:16;18.00;;;17.20;;
37877;SDS011;23715;53.652;8.516;2023-08-20T20:40:16;20.80;;;19.80;;
37877;SDS011;23715;53.652;8.516;2023-08-20T20:45:18;21.27;;;20.17;;
37877;SDS011;23715;53.652;8.516;2023-08-20T20:50:18;22.58;;;21.55;;
37877;SDS011;23715;53.652;8.516;2023-08-20T20:55:18;23.27;;;21.97;;
37877;SDS011;23715;53.652;8.516;2023-08-20T21:00:18;24.77;;;23.67;;
37877;SDS011;23715;53.652;8.516;2023-08-20T21:05:19;25.90;;;24.70;;
37877;SDS011;23715;53.652;8.516;2023-08-20T21:10:19;27.30;;;26.00;;
37877;SDS011;23715;53.652;8.516;2023-08-20T21:15:19;32.00;;;30.50;;
37877;SDS011;23715;53.652;8.516;2023-08-20T21:25:19;37.65;;;35.78;;
37877;SDS011;23715;53.652;8.516;2023-08-20T21:30:19;38.83;;;36.95;;
37877;SDS011;23715;53.652;8.516;2023-08-20T21:35:21;37.80;;;36.00;;
37877;SDS011;23715;53.652;8.516;2023-08-20T21:40:22;37.73;;;35.83;;
37877;SDS011;23715;53.652;8.516;2023-08-20T21:50:22;34.10;;;32.50;;
37877;SDS011;23715;53.652;8.516;2023-08-20T21:55:22;30.90;;;29.23;;
37877;SDS011;23715;53.652;8.516;2023-08-20T22:05:22;30.10;;;28.67;;
37877;SDS011;23715;53.652;8.516;2023-08-20T22:10:23;30.77;;;29.27;;
37877;SDS011;23715;53.652;8.516;2023-08-20T22:15:23;30.52;;;29.12;;
37877;SDS011;23715;53.652;8.516;2023-08-20T22:20:23;29.60;;;28.20;;
37877;SDS011;23715;53.652;8.516;2023-08-20T22:35:49;33.05;;;31.45;;
37877;SDS011;23715;53.652;8.516;2023-08-20T22:40:50;32.13;;;30.62;;
37877;SDS011;23715;53.652;8.516;2023-08-20T22:45:52;27.45;;;26.15;;
37877;SDS011;23715;53.652;8.516;2023-08-20T22:50:52;30.50;;;28.90;;
37877;SDS011;23715;53.652;8.516;2023-08-20T23:00:53;25.88;;;24.47;;
37877;SDS011;23715;53.652;8.516;2023-08-20T23:05:54;26.20;;;25.00;;
37877;SDS011;23715;53.652;8.516;2023-08-20T23:10:54;28.10;;;26.80;;
37877;SDS011;23715;53.652;8.516;2023-08-20T23:20:59;22.87;;;21.80;;
37877;SDS011;23715;53.652;8.516;2023-08-20T23:25:58;19.60;;;18.70;;
37877;SDS011;23715;53.652;8.516;2023-08-20T23:30:58;18.43;;;17.63;;
37877;SDS011;23715;53.652;8.516;2023-08-20T23:36:02;18.87;;;17.98;;
37877;SDS011;23715;53.652;8.516;2023-08-20T23:41:02;18.37;;;17.57;;
37877;SDS011;23715;53.652;8.516;2023-08-20T23:46:02;20.37;;;19.37;;
37877;SDS011;23715;53.652;8.516;2023-08-20T23:51:03;19.23;;;18.32;;
